createdAt,value
2022-08-26T00:00:16.472Z,21.30
2022-08-26T00:01:19.054Z,21.30
2022-08-26T00:02:31.046Z,21.30
2022-08-26T00:03:32.826Z,21.30
2022-08-26T00:04:34.682Z,21.30
2022-08-26T00:05:36.758Z,21.30
2022-08-26T00:06:42.520Z,21.30
2022-08-26T00:07:48.020Z,21.30
2022-08-26T00:08:50.915Z,21.30
2022-08-26T00:09:54.357Z,21.30
2022-08-26T00:10:57.024Z,21.30
2022-08-26T00:12:01.699Z,21.30
2022-08-26T00:13:05.310Z,21.30
2022-08-26T00:14:07.217Z,21.20
2022-08-26T00:15:11.222Z,21.20
2022-08-26T00:16:13.304Z,21.30
2022-08-26T00:17:15.042Z,21.30
2022-08-26T00:18:22.351Z,21.30
2022-08-26T00:19:24.520Z,21.30
2022-08-26T00:20:30.382Z,21.20
2022-08-26T00:21:32.584Z,21.20
2022-08-26T00:22:34.290Z,21.30
2022-08-26T00:23:41.837Z,21.30
2022-08-26T00:24:47.820Z,21.30
2022-08-26T00:25:49.877Z,21.20
2022-08-26T00:26:51.785Z,21.20
2022-08-26T00:27:53.584Z,21.20
2022-08-26T00:28:57.752Z,21.20
2022-08-26T00:30:05.284Z,21.20
2022-08-26T00:31:07.885Z,21.20
2022-08-26T00:32:12.941Z,21.20
2022-08-26T00:33:17.700Z,21.20
2022-08-26T00:34:20.181Z,21.20
2022-08-26T00:35:23.113Z,21.20
2022-08-26T00:36:25.522Z,21.10
2022-08-26T00:37:32.258Z,21.10
2022-08-26T00:38:35.638Z,21.10
2022-08-26T00:39:39.627Z,21.10
2022-08-26T00:40:48.635Z,21.10
2022-08-26T00:41:50.510Z,21.10
2022-08-26T00:42:52.397Z,21.10
2022-08-26T00:43:54.277Z,21.10
2022-08-26T00:44:56.581Z,21.10
2022-08-26T00:46:05.234Z,21.10
2022-08-26T00:47:21.369Z,21.10
2022-08-26T00:48:26.704Z,21.10
2022-08-26T00:49:40.358Z,21.10
2022-08-26T00:50:49.170Z,21.10
2022-08-26T00:51:54.324Z,21.10
2022-08-26T00:53:00.179Z,21.10
2022-08-26T00:54:05.973Z,21.10
2022-08-26T00:55:20.154Z,21.00
2022-08-26T00:56:34.031Z,21.00
2022-08-26T00:57:36.677Z,21.00
2022-08-26T00:58:42.886Z,21.10
2022-08-26T00:59:48.277Z,21.10
2022-08-26T01:00:50.037Z,21.10
2022-08-26T01:01:52.171Z,21.10
2022-08-26T01:02:56.027Z,21.10
2022-08-26T01:03:58.149Z,21.00
2022-08-26T01:05:03.381Z,21.00
2022-08-26T01:06:12.638Z,20.90
2022-08-26T01:07:16.273Z,21.00
2022-08-26T01:08:18.000Z,20.90
2022-08-26T01:09:22.303Z,20.90
2022-08-26T01:10:27.806Z,20.90
2022-08-26T01:11:30.510Z,20.90
2022-08-26T01:12:40.335Z,20.90
2022-08-26T01:13:42.630Z,20.80
2022-08-26T01:14:46.543Z,20.80
2022-08-26T01:15:51.753Z,20.80
2022-08-26T01:16:55.232Z,20.80
2022-08-26T01:17:58.885Z,20.80
2022-08-26T01:19:09.671Z,20.80
2022-08-26T01:20:40.105Z,20.80
2022-08-26T01:21:54.629Z,20.80
2022-08-26T01:23:03.287Z,20.80
2022-08-26T01:24:06.732Z,20.80
2022-08-26T01:25:08.900Z,20.80
2022-08-26T01:26:23.050Z,20.80
2022-08-26T01:27:32.549Z,20.70
2022-08-26T01:28:36.172Z,20.70
2022-08-26T01:29:40.827Z,20.70
2022-08-26T01:30:44.803Z,20.70
2022-08-26T01:31:57.630Z,20.70
2022-08-26T01:33:03.378Z,20.70
2022-08-26T01:34:09.085Z,20.70
2022-08-26T01:35:11.220Z,20.70
2022-08-26T01:36:13.259Z,20.70
2022-08-26T01:37:21.884Z,20.70
2022-08-26T01:38:23.705Z,20.70
2022-08-26T01:39:25.627Z,20.70
2022-08-26T01:40:32.603Z,20.70
2022-08-26T01:41:35.306Z,20.70
2022-08-26T01:42:38.160Z,20.60
2022-08-26T01:43:40.963Z,20.70
2022-08-26T01:44:49.462Z,20.70
2022-08-26T01:45:54.664Z,20.60
2022-08-26T01:46:58.739Z,20.70
2022-08-26T01:48:04.465Z,20.70
2022-08-26T01:49:08.324Z,20.70
2022-08-26T01:50:28.042Z,20.70
2022-08-26T01:51:37.026Z,20.60
2022-08-26T01:52:42.020Z,20.60
2022-08-26T01:53:46.023Z,20.60
2022-08-26T01:54:50.561Z,20.60
2022-08-26T01:55:57.727Z,20.60
2022-08-26T01:57:00.986Z,20.60
2022-08-26T01:58:18.158Z,20.60
2022-08-26T01:59:21.155Z,20.60
2022-08-26T02:00:24.563Z,20.60
2022-08-26T02:01:29.074Z,20.60
2022-08-26T02:02:31.037Z,20.60
2022-08-26T02:03:33.772Z,20.60
2022-08-26T02:04:48.699Z,20.60
2022-08-26T02:05:58.730Z,20.60
2022-08-26T02:07:08.077Z,20.60
2022-08-26T02:08:11.178Z,20.50
2022-08-26T02:09:13.466Z,20.50
2022-08-26T02:10:17.013Z,20.50
2022-08-26T02:11:21.708Z,20.50
2022-08-26T02:12:23.705Z,20.50
2022-08-26T02:13:31.577Z,20.60
2022-08-26T02:14:43.831Z,20.60
2022-08-26T02:15:46.810Z,20.60
2022-08-26T02:16:52.246Z,20.50
2022-08-26T02:17:54.111Z,20.50
2022-08-26T02:19:01.228Z,20.40
2022-08-26T02:20:06.462Z,20.50
2022-08-26T02:21:16.393Z,20.50
2022-08-26T02:22:22.583Z,20.50
2022-08-26T02:23:26.609Z,20.50
2022-08-26T02:24:30.813Z,20.50
2022-08-26T02:25:43.466Z,20.50
2022-08-26T02:26:46.241Z,20.50
2022-08-26T02:27:48.397Z,20.50
2022-08-26T02:28:51.604Z,20.50
2022-08-26T02:29:58.668Z,20.40
2022-08-26T02:31:00.719Z,20.40
2022-08-26T02:32:08.416Z,20.40
2022-08-26T02:33:11.091Z,20.30
2022-08-26T02:34:16.649Z,20.30
2022-08-26T02:35:20.500Z,20.30
2022-08-26T02:36:25.015Z,20.30
2022-08-26T02:37:31.997Z,20.20
2022-08-26T02:38:36.497Z,20.20
2022-08-26T02:39:41.895Z,20.30
2022-08-26T02:40:44.070Z,20.30
2022-08-26T02:41:46.893Z,20.30
2022-08-26T02:42:49.817Z,20.30
2022-08-26T02:43:55.907Z,20.30
2022-08-26T02:44:57.630Z,20.30
2022-08-26T02:46:01.959Z,20.20
2022-08-26T02:47:04.463Z,20.20
2022-08-26T02:48:17.177Z,20.20
2022-08-26T02:49:22.300Z,20.20
2022-08-26T02:50:25.708Z,20.10
2022-08-26T02:51:28.068Z,20.10
2022-08-26T02:52:29.796Z,20.10
2022-08-26T02:53:31.973Z,20.10
2022-08-26T02:54:37.897Z,20.10
2022-08-26T02:55:42.181Z,20.20
2022-08-26T02:56:44.911Z,20.20
2022-08-26T02:57:46.770Z,20.20
2022-08-26T02:58:48.834Z,20.20
2022-08-26T02:59:50.814Z,20.20
2022-08-26T03:00:53.791Z,20.20
2022-08-26T03:01:56.543Z,20.20
2022-08-26T03:02:59.332Z,20.20
2022-08-26T03:04:04.333Z,20.10
2022-08-26T03:05:07.347Z,20.10
2022-08-26T03:06:09.037Z,20.10
2022-08-26T03:07:10.888Z,20.10
2022-08-26T03:08:12.617Z,20.10
2022-08-26T03:09:18.522Z,20.10
2022-08-26T03:10:21.447Z,20.10
2022-08-26T03:11:23.975Z,20.10
2022-08-26T03:12:26.620Z,20.10
2022-08-26T03:13:28.403Z,20.10
2022-08-26T03:14:30.416Z,20.10
2022-08-26T03:15:32.428Z,20.10
2022-08-26T03:16:37.889Z,20.10
2022-08-26T03:17:39.940Z,20.10
2022-08-26T03:18:42.364Z,20.10
2022-08-26T03:19:44.114Z,20.10
2022-08-26T03:20:46.494Z,20.00
2022-08-26T03:21:48.492Z,20.00
2022-08-26T03:22:56.133Z,20.00
2022-08-26T03:23:58.794Z,20.00
2022-08-26T03:25:00.743Z,20.00
2022-08-26T03:26:05.329Z,20.00
2022-08-26T03:27:07.617Z,19.90
2022-08-26T03:28:09.719Z,19.90
2022-08-26T03:29:30.506Z,19.90
2022-08-26T03:30:45.092Z,19.90
2022-08-26T03:31:47.446Z,19.90
2022-08-26T03:32:49.390Z,19.90
2022-08-26T03:33:51.900Z,19.90
2022-08-26T03:34:54.249Z,19.90
2022-08-26T03:35:56.035Z,20.00
2022-08-26T03:36:58.853Z,19.90
2022-08-26T03:38:01.917Z,19.90
2022-08-26T03:39:03.747Z,19.90
2022-08-26T03:40:10.410Z,19.90
2022-08-26T03:41:12.309Z,19.90
2022-08-26T03:42:14.929Z,19.90
2022-08-26T03:43:17.366Z,19.80
2022-08-26T03:44:19.895Z,19.80
2022-08-26T03:45:22.067Z,19.80
2022-08-26T03:46:23.985Z,19.90
2022-08-26T03:47:28.524Z,19.90
2022-08-26T03:48:30.225Z,19.90
2022-08-26T03:49:32.935Z,19.90
2022-08-26T03:50:35.835Z,19.90
2022-08-26T03:51:38.825Z,19.90
2022-08-26T03:52:43.841Z,19.90
2022-08-26T03:53:47.704Z,19.90
2022-08-26T03:54:50.080Z,19.80
2022-08-26T03:55:52.180Z,19.80
2022-08-26T03:56:53.974Z,19.80
2022-08-26T03:57:55.787Z,19.80
2022-08-26T03:58:57.512Z,19.70
2022-08-26T03:59:59.455Z,19.70
2022-08-26T04:01:01.212Z,19.70
2022-08-26T04:02:03.949Z,19.70
2022-08-26T04:03:33.199Z,19.80
2022-08-26T04:04:35.325Z,19.80
2022-08-26T04:05:37.361Z,19.70
2022-08-26T04:06:43.272Z,19.70
2022-08-26T04:07:47.533Z,19.70
2022-08-26T04:08:50.543Z,19.70
2022-08-26T04:09:57.044Z,19.70
2022-08-26T04:11:01.225Z,19.70
2022-08-26T04:12:03.923Z,19.70
2022-08-26T04:13:06.623Z,19.70
2022-08-26T04:14:14.294Z,19.70
2022-08-26T04:15:21.719Z,19.70
2022-08-26T04:16:23.778Z,19.70
2022-08-26T04:17:29.567Z,19.70
2022-08-26T04:18:37.221Z,19.70
2022-08-26T04:19:39.568Z,19.70
2022-08-26T04:20:41.287Z,19.60
2022-08-26T04:21:44.539Z,19.60
2022-08-26T04:22:46.336Z,19.60
2022-08-26T04:23:48.736Z,19.60
2022-08-26T04:24:50.443Z,19.60
2022-08-26T04:25:52.164Z,19.70
2022-08-26T04:26:53.872Z,19.70
2022-08-26T04:27:55.625Z,19.70
2022-08-26T04:28:57.323Z,19.70
2022-08-26T04:30:01.679Z,19.70
2022-08-26T04:31:04.079Z,19.70
2022-08-26T04:32:06.012Z,19.70
2022-08-26T04:33:12.973Z,19.70
2022-08-26T04:34:15.349Z,19.70
2022-08-26T04:35:17.745Z,19.70
2022-08-26T04:36:19.898Z,19.70
2022-08-26T04:37:22.322Z,19.70
2022-08-26T04:38:24.395Z,19.60
2022-08-26T04:39:27.633Z,19.60
2022-08-26T04:40:29.675Z,19.60
2022-08-26T04:41:31.958Z,19.60
2022-08-26T04:42:33.822Z,19.60
2022-08-26T04:43:36.986Z,19.60
2022-08-26T04:44:41.102Z,19.50
2022-08-26T04:45:43.975Z,19.50
2022-08-26T04:46:45.770Z,19.50
2022-08-26T04:47:47.526Z,19.50
2022-08-26T04:48:51.949Z,19.50
2022-08-26T04:49:57.589Z,19.50
2022-08-26T04:51:03.495Z,19.50
2022-08-26T04:52:07.139Z,19.50
2022-08-26T04:53:09.726Z,19.50
2022-08-26T04:54:11.543Z,19.50
2022-08-26T04:55:13.257Z,19.50
2022-08-26T04:56:16.862Z,19.60
2022-08-26T04:57:18.844Z,19.60
2022-08-26T04:58:22.434Z,19.50
2022-08-26T04:59:25.288Z,19.50
2022-08-26T05:00:27.012Z,19.50
2022-08-26T05:01:31.179Z,19.50
2022-08-26T05:02:32.963Z,19.50
2022-08-26T05:03:36.232Z,19.50
2022-08-26T05:04:37.982Z,19.50
2022-08-26T05:05:41.871Z,19.50
2022-08-26T05:06:43.642Z,19.50
2022-08-26T05:07:45.379Z,19.50
2022-08-26T05:08:47.658Z,19.50
2022-08-26T05:09:49.425Z,19.50
2022-08-26T05:10:57.245Z,19.50
2022-08-26T05:11:59.021Z,19.50
2022-08-26T05:13:01.357Z,19.50
2022-08-26T05:14:03.265Z,19.50
2022-08-26T05:15:05.798Z,19.50
2022-08-26T05:16:11.583Z,19.50
2022-08-26T05:17:14.958Z,19.50
2022-08-26T05:18:20.707Z,19.50
2022-08-26T05:19:23.665Z,19.60
2022-08-26T05:20:25.778Z,19.60
2022-08-26T05:21:29.131Z,19.60
2022-08-26T05:22:31.070Z,19.60
2022-08-26T05:23:35.702Z,19.60
2022-08-26T05:24:37.515Z,19.60
2022-08-26T05:25:43.021Z,19.60
2022-08-26T05:26:45.361Z,19.60
2022-08-26T05:27:47.117Z,19.60
2022-08-26T05:28:49.343Z,19.60
2022-08-26T05:29:54.635Z,19.60
2022-08-26T05:30:56.705Z,19.70
2022-08-26T05:31:58.496Z,19.70
2022-08-26T05:33:01.901Z,19.70
2022-08-26T05:34:04.732Z,19.70
2022-08-26T05:35:07.754Z,19.70
2022-08-26T05:36:15.150Z,19.70
2022-08-26T05:37:17.047Z,19.70
2022-08-26T05:38:21.600Z,19.80
2022-08-26T05:39:24.556Z,19.80
2022-08-26T05:40:27.133Z,19.80
2022-08-26T05:41:36.637Z,19.80
2022-08-26T05:42:40.271Z,19.80
2022-08-26T05:43:42.102Z,19.90
2022-08-26T05:44:55.599Z,19.90
2022-08-26T05:46:07.005Z,19.90
2022-08-26T05:47:08.847Z,19.90
2022-08-26T05:48:10.680Z,19.90
2022-08-26T05:49:14.451Z,19.90
2022-08-26T05:50:21.896Z,19.90
2022-08-26T05:51:26.207Z,19.90
2022-08-26T05:52:28.101Z,19.90
2022-08-26T05:53:29.841Z,19.90
2022-08-26T05:54:33.892Z,19.90
2022-08-26T05:55:41.295Z,20.00
2022-08-26T05:56:43.148Z,20.00
2022-08-26T05:57:45.108Z,20.00
2022-08-26T05:58:47.033Z,20.00
2022-08-26T05:59:48.735Z,20.00
2022-08-26T06:01:25.651Z,20.00
2022-08-26T06:02:28.439Z,20.00
2022-08-26T06:03:31.651Z,20.10
2022-08-26T06:04:33.629Z,20.10
2022-08-26T06:05:41.531Z,20.10
2022-08-26T06:06:43.306Z,20.10
2022-08-26T06:08:05.561Z,20.10
2022-08-26T06:09:11.006Z,20.10
2022-08-26T06:10:31.477Z,20.20
2022-08-26T06:11:34.747Z,20.10
2022-08-26T06:12:37.421Z,20.10
2022-08-26T06:13:39.755Z,20.10
2022-08-26T06:14:41.503Z,20.10
2022-08-26T06:15:45.866Z,20.10
2022-08-26T06:16:47.871Z,20.10
2022-08-26T06:17:49.638Z,20.10
2022-08-26T06:18:52.976Z,20.20
2022-08-26T06:19:54.672Z,20.20
2022-08-26T06:20:58.141Z,20.20
2022-08-26T06:22:23.338Z,20.20
2022-08-26T06:23:46.012Z,20.20
2022-08-26T06:25:06.535Z,20.30
2022-08-26T06:26:10.994Z,20.30
2022-08-26T06:27:14.000Z,20.40
2022-08-26T06:28:17.489Z,20.50
2022-08-26T06:29:24.726Z,20.50
2022-08-26T06:30:26.783Z,20.50
2022-08-26T06:31:29.441Z,20.60
2022-08-26T06:32:31.752Z,20.60
2022-08-26T06:33:33.928Z,20.60
2022-08-26T06:34:36.089Z,20.70
2022-08-26T06:35:39.850Z,20.70
2022-08-26T06:36:43.925Z,20.80
2022-08-26T06:37:46.099Z,20.80
2022-08-26T06:38:49.027Z,20.80
2022-08-26T06:39:51.169Z,20.80
2022-08-26T06:40:54.851Z,20.80
2022-08-26T06:41:56.897Z,20.80
2022-08-26T06:42:58.776Z,20.80
2022-08-26T06:44:01.514Z,20.90
2022-08-26T06:45:03.975Z,20.90
2022-08-26T06:46:10.550Z,20.90
2022-08-26T06:47:13.592Z,21.00
2022-08-26T06:48:18.537Z,21.00
2022-08-26T06:49:27.147Z,21.00
2022-08-26T06:50:29.841Z,21.00
2022-08-26T06:51:34.685Z,21.00
2022-08-26T06:52:36.483Z,21.00
2022-08-26T06:53:39.762Z,21.10
2022-08-26T06:54:43.257Z,21.10
2022-08-26T06:55:46.875Z,21.20
2022-08-26T06:56:53.837Z,21.20
2022-08-26T06:57:57.745Z,21.20
2022-08-26T06:59:00.564Z,21.30
2022-08-26T07:00:10.705Z,21.40
2022-08-26T07:01:31.763Z,21.50
2022-08-26T07:02:34.580Z,21.50
2022-08-26T07:03:39.610Z,21.60
2022-08-26T07:04:41.894Z,21.70
2022-08-26T07:05:44.346Z,21.80
2022-08-26T07:06:48.940Z,21.90
2022-08-26T07:07:52.411Z,22.00
2022-08-26T07:09:01.296Z,22.10
2022-08-26T07:10:06.007Z,22.20
2022-08-26T07:11:10.043Z,22.20
2022-08-26T07:12:12.393Z,22.30
2022-08-26T07:13:14.948Z,22.40
2022-08-26T07:14:21.217Z,22.40
2022-08-26T07:15:23.952Z,22.50
2022-08-26T07:16:29.920Z,22.50
2022-08-26T07:17:32.245Z,22.60
2022-08-26T07:18:36.729Z,22.70
2022-08-26T07:19:38.481Z,22.80
2022-08-26T07:20:42.307Z,22.80
2022-08-26T07:21:44.708Z,22.90
2022-08-26T07:22:46.415Z,22.90
2022-08-26T07:23:48.981Z,23.00
2022-08-26T07:24:50.897Z,23.00
2022-08-26T07:25:52.632Z,23.10
2022-08-26T07:26:54.346Z,23.20
2022-08-26T07:27:56.038Z,23.20
2022-08-26T07:28:59.409Z,23.30
2022-08-26T07:30:02.114Z,23.30
2022-08-26T07:31:11.363Z,23.30
2022-08-26T07:32:15.329Z,23.40
2022-08-26T07:33:20.062Z,23.40
2022-08-26T07:34:22.916Z,23.40
2022-08-26T07:35:25.488Z,23.50
2022-08-26T07:36:29.069Z,23.50
2022-08-26T07:37:30.800Z,23.60
2022-08-26T07:38:42.002Z,23.60
2022-08-26T07:39:44.309Z,23.60
2022-08-26T07:40:46.058Z,23.60
2022-08-26T07:41:47.813Z,23.70
2022-08-26T07:42:50.893Z,23.70
2022-08-26T07:43:53.792Z,23.80
2022-08-26T07:44:55.496Z,23.80
2022-08-26T07:45:57.660Z,23.90
2022-08-26T07:46:59.473Z,24.00
2022-08-26T07:48:01.402Z,24.00
2022-08-26T07:49:06.067Z,24.10
2022-08-26T07:50:08.787Z,24.20
2022-08-26T07:51:11.382Z,24.30
2022-08-26T07:52:13.101Z,24.30
2022-08-26T07:53:15.380Z,24.50
2022-08-26T07:54:20.152Z,24.60
2022-08-26T07:55:26.297Z,24.70
2022-08-26T07:56:28.224Z,24.70
2022-08-26T07:57:30.400Z,24.80
2022-08-26T07:58:32.212Z,24.90
2022-08-26T07:59:34.109Z,25.00
2022-08-26T08:00:35.922Z,25.00
2022-08-26T08:01:38.832Z,25.10
2022-08-26T08:02:40.625Z,25.10
2022-08-26T08:03:42.472Z,25.20
2022-08-26T08:04:44.319Z,25.30
2022-08-26T08:05:46.402Z,25.40
2022-08-26T08:06:48.643Z,25.50
2022-08-26T08:07:53.664Z,25.60
2022-08-26T08:09:14.930Z,25.60
2022-08-26T08:10:21.372Z,25.70
2022-08-26T08:11:24.660Z,25.80
2022-08-26T08:12:26.354Z,25.90
2022-08-26T08:13:28.454Z,26.00
2022-08-26T08:14:31.055Z,26.10
2022-08-26T08:15:34.247Z,26.20
2022-08-26T08:16:41.563Z,26.30
2022-08-26T08:17:47.929Z,26.40
2022-08-26T08:18:53.535Z,26.50
2022-08-26T08:19:55.429Z,26.60
2022-08-26T08:21:10.875Z,26.60
2022-08-26T08:22:23.549Z,26.70
2022-08-26T08:23:26.078Z,26.80
2022-08-26T08:24:28.750Z,26.80
2022-08-26T08:25:31.996Z,26.90
2022-08-26T08:26:35.212Z,27.00
2022-08-26T08:27:39.073Z,27.10
2022-08-26T08:28:40.866Z,27.20
2022-08-26T08:29:43.317Z,27.20
2022-08-26T08:30:45.124Z,27.30
2022-08-26T08:31:58.402Z,27.40
2022-08-26T08:33:03.212Z,27.40
2022-08-26T08:34:05.470Z,27.50
2022-08-26T08:35:11.112Z,27.50
2022-08-26T08:36:20.483Z,27.50
2022-08-26T08:37:23.144Z,27.60
2022-08-26T08:38:26.352Z,27.80
2022-08-26T08:39:31.554Z,27.90
2022-08-26T08:40:34.169Z,27.90
2022-08-26T08:41:48.241Z,28.00
2022-08-26T08:42:56.660Z,28.00
2022-08-26T08:44:01.655Z,28.10
2022-08-26T08:45:38.222Z,28.20
2022-08-26T08:46:42.474Z,28.30
2022-08-26T08:47:50.406Z,28.30
2022-08-26T08:48:57.022Z,28.40
2022-08-26T08:50:19.695Z,28.50
2022-08-26T08:51:42.632Z,28.50
2022-08-26T08:52:51.866Z,28.60
2022-08-26T08:53:55.031Z,28.60
2022-08-26T08:54:57.447Z,28.50
2022-08-26T08:56:26.098Z,28.50
2022-08-26T08:57:45.892Z,28.60
2022-08-26T08:59:06.633Z,28.60
2022-08-26T09:00:16.951Z,28.70
2022-08-26T09:01:33.577Z,28.80
2022-08-26T09:02:56.368Z,28.80
2022-08-26T09:04:13.117Z,29.00
2022-08-26T09:05:18.984Z,29.00
2022-08-26T09:06:21.087Z,29.10
2022-08-26T09:07:27.496Z,29.20
2022-08-26T09:08:35.219Z,29.20
2022-08-26T09:09:48.434Z,29.20
2022-08-26T09:10:57.979Z,29.20
2022-08-26T09:12:01.671Z,29.20
2022-08-26T09:13:09.834Z,29.30
2022-08-26T09:14:18.106Z,29.40
2022-08-26T09:15:48.658Z,29.50
2022-08-26T09:17:21.547Z,29.50
2022-08-26T09:18:35.653Z,29.60
2022-08-26T09:19:45.029Z,29.70
2022-08-26T09:21:03.521Z,29.70
2022-08-26T09:22:09.428Z,29.80
2022-08-26T09:23:11.971Z,29.80
2022-08-26T09:24:14.199Z,29.90
2022-08-26T09:25:16.249Z,29.90
2022-08-26T09:26:25.936Z,30.00
2022-08-26T09:27:42.223Z,30.00
2022-08-26T09:29:02.359Z,30.10
2022-08-26T09:30:05.328Z,30.20
2022-08-26T09:31:11.702Z,30.20
2022-08-26T09:32:25.256Z,30.30
2022-08-26T09:33:30.380Z,30.40
2022-08-26T09:34:32.076Z,30.40
2022-08-26T09:35:39.574Z,30.40
2022-08-26T09:36:47.851Z,30.30
2022-08-26T09:38:56.392Z,30.00
2022-08-26T09:40:12.226Z,30.00
2022-08-26T09:41:36.965Z,30.00
2022-08-26T09:42:38.698Z,29.90
2022-08-26T09:43:41.935Z,29.70
2022-08-26T09:44:52.605Z,29.50
2022-08-26T09:46:18.490Z,29.50
2022-08-26T09:47:45.571Z,29.50
2022-08-26T09:48:47.389Z,29.50
2022-08-26T09:50:01.575Z,29.50
2022-08-26T09:51:26.836Z,29.50
2022-08-26T09:52:28.844Z,29.50
2022-08-26T09:53:37.535Z,29.40
2022-08-26T09:54:40.702Z,29.30
2022-08-26T09:55:49.843Z,29.20
2022-08-26T09:56:52.404Z,29.00
2022-08-26T09:57:55.620Z,29.00
2022-08-26T09:59:00.169Z,28.90
2022-08-26T10:00:22.869Z,28.90
2022-08-26T10:01:36.122Z,28.90
2022-08-26T10:02:41.607Z,28.90
2022-08-26T10:03:50.639Z,29.00
2022-08-26T10:04:55.291Z,29.00
2022-08-26T10:06:07.827Z,29.00
2022-08-26T10:07:09.832Z,28.90
2022-08-26T10:08:23.095Z,28.80
2022-08-26T10:09:26.512Z,28.80
2022-08-26T10:10:41.993Z,28.70
2022-08-26T10:12:00.161Z,28.50
2022-08-26T10:13:11.202Z,28.40
2022-08-26T10:14:20.205Z,28.30
2022-08-26T10:15:25.291Z,28.20
2022-08-26T10:16:29.796Z,28.20
2022-08-26T10:17:39.434Z,28.00
2022-08-26T10:18:59.903Z,27.90
2022-08-26T10:20:09.841Z,27.80
2022-08-26T10:21:49.571Z,27.70
2022-08-26T10:23:06.732Z,27.50
2022-08-26T10:24:11.316Z,27.40
2022-08-26T10:25:17.227Z,27.40
2022-08-26T10:26:25.176Z,27.40
2022-08-26T10:27:48.448Z,27.40
2022-08-26T10:29:10.036Z,27.40
2022-08-26T10:30:16.153Z,27.30
2022-08-26T10:31:38.246Z,27.30
2022-08-26T10:32:56.709Z,27.30
2022-08-26T10:34:00.403Z,27.30
2022-08-26T10:35:03.993Z,27.30
2022-08-26T10:36:39.268Z,27.30
2022-08-26T10:37:55.838Z,27.30
2022-08-26T10:39:01.816Z,27.40
2022-08-26T10:40:25.388Z,27.50
2022-08-26T10:41:32.141Z,27.50
2022-08-26T10:42:37.535Z,27.60
2022-08-26T10:43:58.585Z,27.80
2022-08-26T10:45:11.920Z,27.90
2022-08-26T10:46:27.361Z,28.10
2022-08-26T10:47:38.351Z,28.40
2022-08-26T10:49:03.206Z,28.50
2022-08-26T10:50:08.432Z,28.40
2022-08-26T10:51:12.947Z,28.40
2022-08-26T10:52:28.444Z,28.40
2022-08-26T10:53:32.676Z,28.40
2022-08-26T10:54:54.778Z,28.40
2022-08-26T10:56:46.677Z,28.50
2022-08-26T10:58:11.626Z,28.70
2022-08-26T10:59:39.173Z,28.80
2022-08-26T11:01:10.788Z,29.00
2022-08-26T11:02:24.683Z,29.10
2022-08-26T11:03:34.358Z,29.20
2022-08-26T11:04:54.769Z,29.20
2022-08-26T11:06:15.270Z,29.20
2022-08-26T11:07:36.841Z,29.20
2022-08-26T11:08:53.089Z,29.10
2022-08-26T11:09:54.875Z,29.10
2022-08-26T11:11:00.378Z,29.20
2022-08-26T11:12:09.938Z,29.30
2022-08-26T11:13:12.173Z,29.40
2022-08-26T11:14:29.234Z,29.50
2022-08-26T11:15:31.494Z,29.50
2022-08-26T11:16:54.135Z,29.50
2022-08-26T11:18:02.363Z,29.50
2022-08-26T11:19:05.146Z,29.50
2022-08-26T11:20:13.520Z,29.70
2022-08-26T11:21:44.611Z,29.70
2022-08-26T11:22:47.783Z,29.70
2022-08-26T11:23:50.190Z,29.60
2022-08-26T11:24:55.554Z,29.50
2022-08-26T11:26:18.878Z,29.50
2022-08-26T11:27:36.796Z,29.40
2022-08-26T11:28:50.205Z,29.20
2022-08-26T11:30:13.646Z,29.10
2022-08-26T11:31:25.202Z,29.00
2022-08-26T11:32:39.110Z,29.00
2022-08-26T11:33:43.926Z,29.00
2022-08-26T11:34:58.349Z,29.10
2022-08-26T11:36:00.622Z,29.10
2022-08-26T11:37:17.516Z,29.10
2022-08-26T11:38:28.951Z,29.20
2022-08-26T11:39:57.687Z,29.30
2022-08-26T11:41:11.537Z,29.50
2022-08-26T11:42:31.989Z,29.80
2022-08-26T11:43:34.250Z,29.90
2022-08-26T11:44:40.562Z,30.00
2022-08-26T11:45:48.976Z,30.10
2022-08-26T11:47:03.009Z,30.30
2022-08-26T11:48:22.795Z,30.40
2022-08-26T11:49:28.330Z,30.40
2022-08-26T11:50:30.143Z,30.40
2022-08-26T11:51:34.952Z,30.40
2022-08-26T11:52:40.267Z,30.50
2022-08-26T11:53:47.364Z,30.60
2022-08-26T11:55:08.803Z,30.70
2022-08-26T11:56:32.491Z,30.80
2022-08-26T11:57:40.594Z,30.90
2022-08-26T11:58:44.784Z,30.90
2022-08-26T11:59:46.678Z,31.00
2022-08-26T12:01:05.441Z,31.10
2022-08-26T12:02:17.795Z,31.10
2022-08-26T12:03:25.136Z,31.00
2022-08-26T12:04:37.691Z,31.00
2022-08-26T12:05:44.878Z,31.00
2022-08-26T12:06:51.052Z,31.00
2022-08-26T12:07:54.324Z,31.00
2022-08-26T12:09:02.408Z,31.20
2022-08-26T12:10:06.844Z,31.20
2022-08-26T12:11:13.600Z,31.40
2022-08-26T12:12:36.046Z,31.50
2022-08-26T12:13:39.175Z,31.60
2022-08-26T12:14:41.813Z,31.70
2022-08-26T12:15:53.324Z,31.80
2022-08-26T12:17:13.026Z,31.90
2022-08-26T12:18:29.324Z,32.10
2022-08-26T12:19:33.838Z,32.10
2022-08-26T12:20:58.774Z,32.20
2022-08-26T12:22:15.895Z,32.20
2022-08-26T12:23:26.053Z,32.50
2022-08-26T12:24:28.313Z,32.60
2022-08-26T12:25:36.296Z,32.60
2022-08-26T12:26:39.351Z,32.60
2022-08-26T12:27:43.081Z,32.60
2022-08-26T12:28:49.013Z,32.60
2022-08-26T12:30:12.369Z,32.60
2022-08-26T12:31:29.136Z,32.70
2022-08-26T12:32:31.818Z,32.70
2022-08-26T12:33:37.900Z,32.60
2022-08-26T12:34:42.229Z,32.70
2022-08-26T12:35:44.881Z,32.80
2022-08-26T12:36:52.954Z,33.00
2022-08-26T12:37:55.308Z,33.10
2022-08-26T12:39:05.383Z,33.20
2022-08-26T12:40:43.241Z,33.00
2022-08-26T12:41:48.785Z,33.20
2022-08-26T12:42:50.628Z,33.40
2022-08-26T12:43:52.390Z,33.40
2022-08-26T12:45:04.381Z,33.30
2022-08-26T12:46:08.869Z,33.30
2022-08-26T12:47:33.841Z,33.40
2022-08-26T12:48:49.594Z,33.60
2022-08-26T12:50:00.005Z,33.60
2022-08-26T12:51:03.580Z,33.50
2022-08-26T12:52:09.709Z,33.40
2022-08-26T12:53:11.392Z,33.40
2022-08-26T12:54:15.907Z,33.40
2022-08-26T12:55:39.183Z,33.40
2022-08-26T12:56:41.069Z,33.30
2022-08-26T12:57:42.949Z,33.20
2022-08-26T12:58:44.989Z,33.30
2022-08-26T12:59:46.768Z,33.30
2022-08-26T13:00:49.643Z,33.40
2022-08-26T13:01:53.601Z,33.50
2022-08-26T13:02:55.678Z,33.60
2022-08-26T13:03:57.902Z,33.70
2022-08-26T13:05:00.937Z,33.90
2022-08-26T13:06:20.833Z,33.90
2022-08-26T13:07:25.835Z,34.10
2022-08-26T13:08:28.295Z,34.20
2022-08-26T13:09:31.442Z,34.20
2022-08-26T13:10:36.398Z,34.30
2022-08-26T13:11:40.881Z,34.20
2022-08-26T13:12:42.600Z,34.20
2022-08-26T13:13:45.729Z,34.20
2022-08-26T13:14:49.454Z,33.90
2022-08-26T13:15:52.460Z,34.00
2022-08-26T13:16:54.333Z,33.90
2022-08-26T13:17:56.137Z,34.00
2022-08-26T13:19:02.071Z,34.10
2022-08-26T13:20:04.662Z,34.20
2022-08-26T13:21:13.281Z,34.20
2022-08-26T13:22:24.250Z,34.30
2022-08-26T13:23:26.138Z,34.30
2022-08-26T13:24:32.766Z,34.10
2022-08-26T13:25:34.557Z,34.00
2022-08-26T13:26:36.330Z,33.80
2022-08-26T13:27:38.085Z,33.60
2022-08-26T13:28:39.844Z,33.40
2022-08-26T13:29:42.048Z,33.20
2022-08-26T13:30:47.772Z,33.00
2022-08-26T13:31:50.074Z,32.90
2022-08-26T13:32:57.229Z,32.80
2022-08-26T13:33:59.637Z,32.80
2022-08-26T13:35:05.827Z,32.70
2022-08-26T13:36:08.022Z,32.60
2022-08-26T13:37:09.757Z,32.60
2022-08-26T13:38:33.013Z,32.60
2022-08-26T13:39:35.791Z,32.60
2022-08-26T13:40:37.551Z,32.50
2022-08-26T13:41:39.559Z,32.50
2022-08-26T13:42:49.508Z,32.50
2022-08-26T13:43:53.591Z,32.40
2022-08-26T13:44:58.126Z,32.40
2022-08-26T13:46:01.517Z,32.30
2022-08-26T13:47:03.367Z,32.30
2022-08-26T13:48:06.567Z,32.20
2022-08-26T13:49:08.739Z,32.10
2022-08-26T13:50:10.690Z,32.00
2022-08-26T13:51:12.505Z,31.80
2022-08-26T13:52:14.317Z,31.70
2022-08-26T13:53:17.352Z,31.40
2022-08-26T13:54:19.195Z,31.20
2022-08-26T13:55:20.963Z,30.60
2022-08-26T13:56:23.766Z,30.10
2022-08-26T13:57:27.914Z,29.70
2022-08-26T13:58:29.720Z,29.40
2022-08-26T13:59:31.995Z,29.10
2022-08-26T14:00:34.247Z,28.90
2022-08-26T14:01:36.348Z,28.70
2022-08-26T14:02:38.159Z,28.60
2022-08-26T14:03:40.054Z,28.40
2022-08-26T14:04:41.963Z,28.40
2022-08-26T14:05:43.807Z,28.20
2022-08-26T14:06:45.608Z,28.10
2022-08-26T14:07:49.581Z,28.00
2022-08-26T14:08:51.354Z,27.90
2022-08-26T14:09:53.206Z,27.80
2022-08-26T14:10:55.010Z,27.90
2022-08-26T14:11:58.129Z,27.90
2022-08-26T14:13:00.840Z,27.90
2022-08-26T14:14:02.618Z,27.90
2022-08-26T14:15:04.755Z,27.90
2022-08-26T14:16:13.418Z,27.90